Laverock, Pennsylvania
Current Conditions -  °F | °C
As of 12:55 AM on Wednesday 22 Oct 2014 (Local Time) from KLOM Reporting Station
Overcast Overcast  
Wind Chill: 12°   Ceiling: 2300
Heat Index: 12°   Visibility: 4mi
Dew Point: 12°   Wind: 0mph
Humidity: 100%   Direction: NA
Pressure: 29.88"   Gusts: NA
Location:  40.1012°N, 75.1722°W
Report Text: KLOM 220455Z AUTO 00000KT 4SM SCT011 BKN023 OVC065 12/12 A2988 RMK AO1 P0004
Loading
Personal Weather Stations






























Interactive Weather Map
Tropical Storm Tracking
New forecast layout! Learn more

10-Day Weather Forecast

Advertisements
Track Severe Weather on mobile